Time;durP1;ratioP1;P1;durP2;ratioP2;P2;SDS_P1;SDS_P2;PMS_P1;PMS_P2;Temp;Humidity;BMP_temperature;BMP_pressure;BME280_temperature;BME280_humidity;BME280_pressure;Samples;Min_cycle;Max_cycle;Signal;HPM_P1;HPM_P2
2023/11/08 00:00:03;;;;;;;12.00;5.80;;;;;;;;;;103829;1288;545742;-71
2023/11/08 00:03:42;;;;;;;11.10;5.40;;;;;;;;;;103845;1295;545026;-72
2023/11/08 00:07:18;;;;;;;11.30;6.20;;;;;;;;;;103793;1289;545040;-72
2023/11/08 00:10:51;;;;;;;11.50;6.40;;;;;;;;;;103752;1292;545082;-73
2023/11/08 00:14:32;;;;;;;10.00;5.30;;;;;;;;;;103608;1291;545087;-72
2023/11/08 00:18:10;;;;;;;9.00;4.30;;;;;;;;;;103849;1288;544927;-72
2023/11/08 00:21:47;;;;;;;8.60;4.60;;;;;;;;;;104030;1292;545676;-72
2023/11/08 00:25:25;;;;;;;8.20;3.70;;;;;;;;;;103517;1294;544826;-71
2023/11/08 00:29:02;;;;;;;9.10;4.20;;;;;;;;;;104006;1289;545742;-72
2023/11/08 00:32:40;;;;;;;10.10;4.40;;;;;;;;;;103777;1292;545380;-72
2023/11/08 00:36:17;;;;;;;9.40;4.10;;;;;;;;;;103812;1289;544753;-71
2023/11/08 00:40:00;;;;;;;11.40;5.50;;;;;;;;;;103711;1294;548329;-71
2023/11/08 00:43:32;;;;;;;12.10;6.50;;;;;;;;;;103734;1294;544709;-72
2023/11/08 00:47:10;;;;;;;9.80;5.30;;;;;;;;;;103686;1288;544783;-72
2023/11/08 00:50:44;;;;;;;11.70;5.40;;;;;;;;;;104011;1292;545875;-72
2023/11/08 00:54:25;;;;;;;14.70;5.80;;;;;;;;;;103766;1292;544793;-72
2023/11/08 00:58:02;;;;;;;11.80;5.20;;;;;;;;;;103995;1289;544829;-71
2023/11/08 01:01:39;;;;;;;11.60;5.00;;;;;;;;;;103902;1291;545654;-71
2023/11/08 01:05:17;;;;;;;13.20;5.90;;;;;;;;;;103666;1292;544986;-71
2023/11/08 01:08:54;;;;;;;13.50;5.90;;;;;;;;;;103768;1289;545421;-71
2023/11/08 01:12:32;;;;;;;10.80;5.00;;;;;;;;;;104066;1286;544973;-71
2023/11/08 01:16:09;;;;;;;11.10;4.90;;;;;;;;;;103741;1289;545006;-72
2023/11/08 01:19:47;;;;;;;8.50;3.90;;;;;;;;;;103566;1295;545196;-71
2023/11/08 01:23:24;;;;;;;9.70;4.80;;;;;;;;;;103750;1289;545705;-72
2023/11/08 01:27:02;;;;;;;10.00;4.80;;;;;;;;;;104056;1289;545035;-71
2023/11/08 01:30:39;;;;;;;10.10;4.40;;;;;;;;;;103776;1289;544992;-71
2023/11/08 01:34:13;;;;;;;8.50;4.00;;;;;;;;;;103825;1292;544969;-72
2023/11/08 01:37:56;;;;;;;9.70;4.60;;;;;;;;;;103618;1295;545715;-72
2023/11/08 01:41:33;;;;;;;9.60;4.90;;;;;;;;;;103858;1293;546377;-73
2023/11/08 01:45:11;;;;;;;9.40;4.60;;;;;;;;;;103751;1292;545310;-73
2023/11/08 01:48:49;;;;;;;8.50;3.50;;;;;;;;;;103835;1289;546013;-71
2023/11/08 01:52:26;;;;;;;8.80;3.60;;;;;;;;;;103789;1290;544911;-72
2023/11/08 01:56:04;;;;;;;8.00;3.70;;;;;;;;;;103872;1293;545701;-72
2023/11/08 01:59:42;;;;;;;8.20;3.90;;;;;;;;;;103761;1291;545434;-71
2023/11/08 02:03:19;;;;;;;8.50;3.70;;;;;;;;;;103909;1290;544890;-71
2023/11/08 02:06:56;;;;;;;8.50;3.90;;;;;;;;;;103735;1292;544801;-72
2023/11/08 02:10:33;;;;;;;7.90;3.30;;;;;;;;;;103786;1289;545525;-71
2023/11/08 02:14:11;;;;;;;7.80;3.30;;;;;;;;;;103647;1289;545422;-71
2023/11/08 02:17:49;;;;;;;6.90;3.30;;;;;;;;;;103771;1304;545323;-72
2023/11/08 02:21:26;;;;;;;7.60;3.10;;;;;;;;;;103782;1289;544984;-72
2023/11/08 02:25:11;;;;;;;6.70;2.90;;;;;;;;;;103688;1291;544992;-71
2023/11/08 02:28:41;;;;;;;7.20;3.00;;;;;;;;;;103698;1291;545035;-72
2023/11/08 02:32:18;;;;;;;6.00;2.70;;;;;;;;;;103847;1289;545449;-72
2023/11/08 02:35:58;;;;;;;5.50;2.50;;;;;;;;;;103730;1291;545240;-71
2023/11/08 02:39:29;;;;;;;5.30;2.40;;;;;;;;;;103810;1290;544814;-71
2023/11/08 02:43:13;;;;;;;6.10;2.70;;;;;;;;;;104264;1286;545208;-72
2023/11/08 02:46:51;;;;;;;6.40;2.70;;;;;;;;;;103787;1292;545698;-72
2023/11/08 02:50:28;;;;;;;5.00;2.10;;;;;;;;;;104493;1285;545026;-72
2023/11/08 02:54:05;;;;;;;3.90;1.70;;;;;;;;;;103756;1291;544965;-72
2023/11/08 02:57:43;;;;;;;4.10;1.50;;;;;;;;;;103831;1289;544984;-71
2023/11/08 03:01:23;;;;;;;3.30;1.30;;;;;;;;;;103814;1292;546181;-71
2023/11/08 03:04:57;;;;;;;4.10;1.50;;;;;;;;;;104474;1283;545023;-72
2023/11/08 03:08:34;;;;;;;3.60;1.20;;;;;;;;;;103759;1291;545432;-72
2023/11/08 03:12:12;;;;;;;3.60;1.10;;;;;;;;;;103853;1288;544966;-72
2023/11/08 03:15:49;;;;;;;2.90;1.30;;;;;;;;;;104035;1286;544922;-71
2023/11/08 03:19:29;;;;;;;3.40;1.10;;;;;;;;;;103875;1289;545942;-72
2023/11/08 03:23:05;;;;;;;2.70;1.30;;;;;;;;;;103785;1291;545933;-72
2023/11/08 03:26:49;;;;;;;4.70;1.50;;;;;;;;;;103795;1292;545415;-71
2023/11/08 03:30:16;;;;;;;3.60;1.30;;;;;;;;;;103958;1292;545498;-71
2023/11/08 03:34:00;;;;;;;2.70;1.00;;;;;;;;;;103818;1292;545074;-72
2023/11/08 03:37:38;;;;;;;3.50;1.30;;;;;;;;;;103908;1290;545415;-71
2023/11/08 03:41:14;;;;;;;4.70;1.40;;;;;;;;;;103763;1291;544935;-70
2023/11/08 03:44:52;;;;;;;2.80;1.30;;;;;;;;;;103813;1291;544796;-71
2023/11/08 03:48:29;;;;;;;3.50;1.30;;;;;;;;;;103800;1290;544676;-70
2023/11/08 03:52:06;;;;;;;4.10;1.50;;;;;;;;;;103782;1289;545636;-71
2023/11/08 03:55:45;;;;;;;4.40;1.60;;;;;;;;;;103753;1294;545036;-70
2023/11/08 03:59:22;;;;;;;4.80;1.80;;;;;;;;;;103725;1292;545508;-71
2023/11/08 04:02:59;;;;;;;5.10;1.70;;;;;;;;;;103693;1290;545025;-71
2023/11/08 04:06:33;;;;;;;4.40;1.80;;;;;;;;;;103894;1295;545497;-73
2023/11/08 04:10:14;;;;;;;4.60;1.70;;;;;;;;;;103701;1292;545351;-72
2023/11/08 04:13:52;;;;;;;5.90;2.10;;;;;;;;;;103765;1289;544827;-71
2023/11/08 04:17:29;;;;;;;5.40;2.00;;;;;;;;;;103588;1292;545180;-70
2023/11/08 04:21:06;;;;;;;4.50;2.10;;;;;;;;;;103497;1294;544832;-70
2023/11/08 04:24:44;;;;;;;4.80;1.80;;;;;;;;;;103776;1288;544902;-71
2023/11/08 04:28:21;;;;;;;5.10;1.70;;;;;;;;;;103940;1292;545742;-72
2023/11/08 04:31:59;;;;;;;4.40;1.90;;;;;;;;;;103636;1293;545203;-71
2023/11/08 04:35:38;;;;;;;4.50;2.00;;;;;;;;;;103752;1291;544865;-71
2023/11/08 04:39:16;;;;;;;5.40;2.10;;;;;;;;;;103733;1292;545403;-72
2023/11/08 04:42:51;;;;;;;5.40;1.90;;;;;;;;;;104550;1283;545562;-71
2023/11/08 04:46:29;;;;;;;4.10;1.60;;;;;;;;;;103871;1290;544821;-70
2023/11/08 04:50:06;;;;;;;3.90;1.80;;;;;;;;;;103429;1297;545035;-70
2023/11/08 04:53:44;;;;;;;6.60;2.00;;;;;;;;;;103830;1291;544930;-71
2023/11/08 04:57:23;;;;;;;4.60;1.80;;;;;;;;;;103397;1294;544916;-71
2023/11/08 05:00:58;;;;;;;3.90;1.50;;;;;;;;;;103687;1302;545973;-72
2023/11/08 05:04:39;;;;;;;4.10;1.40;;;;;;;;;;103680;1292;545476;-71
2023/11/08 05:08:14;;;;;;;5.80;1.60;;;;;;;;;;103642;1292;544802;-70
2023/11/08 05:11:51;;;;;;;7.60;3.40;;;;;;;;;;103725;1291;545810;-71
2023/11/08 05:15:31;;;;;;;18.50;8.90;;;;;;;;;;103545;1296;544852;-71
2023/11/08 05:19:08;;;;;;;17.50;7.20;;;;;;;;;;103564;1297;544803;-71
2023/11/08 05:22:43;;;;;;;9.20;3.70;;;;;;;;;;103708;1293;545942;-72
2023/11/08 05:26:21;;;;;;;7.90;2.80;;;;;;;;;;103561;1298;544753;-70
2023/11/08 05:30:02;;;;;;;6.40;3.00;;;;;;;;;;104116;1290;544987;-72
2023/11/08 05:33:38;;;;;;;7.00;2.90;;;;;;;;;;103665;1292;545123;-71
2023/11/08 05:37:14;;;;;;;8.30;3.10;;;;;;;;;;103965;1288;545024;-71
2023/11/08 05:40:52;;;;;;;9.50;3.90;;;;;;;;;;103649;1292;545094;-70
2023/11/08 05:44:29;;;;;;;27.20;11.10;;;;;;;;;;103642;1296;545370;-71
2023/11/08 05:48:06;;;;;;;27.40;10.00;;;;;;;;;;103755;1291;544730;-71
2023/11/08 05:51:43;;;;;;;20.20;9.90;;;;;;;;;;103646;1289;545556;-72
2023/11/08 05:55:20;;;;;;;10.60;5.20;;;;;;;;;;103488;1294;545527;-71
2023/11/08 05:58:58;;;;;;;8.90;3.90;;;;;;;;;;103825;1288;545309;-72
2023/11/08 06:02:32;;;;;;;15.40;6.60;;;;;;;;;;104726;1286;544679;-72
2023/11/08 06:06:38;;;;;;;14.00;6.90;;;;;;;;;;103826;1292;547792;-72
2023/11/08 06:09:50;;;;;;;13.30;6.90;;;;;;;;;;103939;1294;544978;-71
2023/11/08 06:13:27;;;;;;;12.10;6.30;;;;;;;;;;103893;1288;545037;-71
2023/11/08 06:17:02;;;;;;;11.90;5.90;;;;;;;;;;103316;1294;545014;-72
2023/11/08 06:20:43;;;;;;;12.40;5.50;;;;;;;;;;103746;1292;545446;-72
2023/11/08 06:24:20;;;;;;;13.80;6.50;;;;;;;;;;103732;1292;545020;-72
2023/11/08 06:28:00;;;;;;;12.90;6.30;;;;;;;;;;103777;1288;545396;-72
2023/11/08 06:31:38;;;;;;;16.30;6.40;;;;;;;;;;103671;1294;545393;-71
2023/11/08 06:35:13;;;;;;;18.40;6.90;;;;;;;;;;103705;1295;544972;-72
2023/11/08 06:38:50;;;;;;;19.30;8.70;;;;;;;;;;103734;1297;544779;-71
2023/11/08 06:42:23;;;;;;;20.40;8.90;;;;;;;;;;103968;1289;545182;-72
2023/11/08 06:46:05;;;;;;;23.20;9.70;;;;;;;;;;103987;1292;545845;-71
2023/11/08 06:49:43;;;;;;;20.80;8.70;;;;;;;;;;104205;1286;544789;-73
2023/11/08 06:53:20;;;;;;;13.70;7.30;;;;;;;;;;105828;1288;544881;-70
2023/11/08 06:56:53;;;;;;;13.10;6.70;;;;;;;;;;103902;1288;544892;-72
2023/11/08 07:00:35;;;;;;;13.60;7.00;;;;;;;;;;103767;1289;545990;-72
2023/11/08 07:04:32;;;;;;;15.50;7.80;;;;;;;;;;103451;1303;548533;-73
2023/11/08 07:07:50;;;;;;;12.60;6.20;;;;;;;;;;103474;1295;544969;-70
2023/11/08 07:11:27;;;;;;;14.30;5.50;;;;;;;;;;103885;1289;544733;-69
2023/11/08 07:15:05;;;;;;;12.30;4.40;;;;;;;;;;104384;1283;544776;-72
2023/11/08 07:18:42;;;;;;;11.90;4.20;;;;;;;;;;103825;1290;544955;-72
2023/11/08 07:22:20;;;;;;;14.70;5.60;;;;;;;;;;103798;1288;545769;-71
2023/11/08 07:25:57;;;;;;;21.90;5.50;;;;;;;;;;103513;1295;546475;-72
2023/11/08 07:29:34;;;;;;;14.70;5.50;;;;;;;;;;103756;1289;544985;-71
2023/11/08 07:33:12;;;;;;;14.50;5.40;;;;;;;;;;103780;1290;544852;-71
2023/11/08 07:36:51;;;;;;;13.10;4.80;;;;;;;;;;103852;1289;544787;-71
2023/11/08 07:40:27;;;;;;;10.90;3.60;;;;;;;;;;103755;1292;544753;-72
2023/11/08 07:44:04;;;;;;;9.30;3.00;;;;;;;;;;104189;1285;545874;-71
2023/11/08 07:47:38;;;;;;;10.20;2.90;;;;;;;;;;103761;1290;544881;-70
2023/11/08 07:55:13;;;;;;;9.00;2.80;;;;;;;;;;103646;1294;549104;-71
2023/11/08 07:58:42;;;;;;;9.60;2.60;;;;;;;;;;103746;1292;545575;-71
2023/11/08 08:02:20;;;;;;;9.40;2.30;;;;;;;;;;103731;1292;544791;-70
2023/11/08 08:05:57;;;;;;;13.90;2.50;;;;;;;;;;103785;1291;546118;-70
2023/11/08 08:09:35;;;;;;;9.60;3.10;;;;;;;;;;103822;1289;546035;-71
2023/11/08 08:13:13;;;;;;;9.00;2.40;;;;;;;;;;104063;1287;545599;-71
2023/11/08 08:16:45;;;;;;;9.80;3.00;;;;;;;;;;103743;1289;545561;-71
2023/11/08 08:20:28;;;;;;;11.10;2.40;;;;;;;;;;103761;1291;544862;-72
2023/11/08 08:24:05;;;;;;;9.50;2.90;;;;;;;;;;103780;1289;545248;-71
2023/11/08 08:27:42;;;;;;;9.90;3.60;;;;;;;;;;103725;1292;545031;-70
2023/11/08 08:31:19;;;;;;;10.90;4.40;;;;;;;;;;103578;1294;544815;-71
2023/11/08 08:34:57;;;;;;;9.60;3.70;;;;;;;;;;103699;1288;544928;-69
2023/11/08 08:38:35;;;;;;;10.70;4.10;;;;;;;;;;103771;1290;545020;-72
2023/11/08 08:42:13;;;;;;;9.60;3.10;;;;;;;;;;103658;1291;544951;-71
2023/11/08 08:45:50;;;;;;;7.80;2.90;;;;;;;;;;103769;1288;544923;-71
2023/11/08 08:49:27;;;;;;;8.10;2.80;;;;;;;;;;104026;1286;544767;-71
2023/11/08 08:53:05;;;;;;;7.80;3.10;;;;;;;;;;103740;1301;545155;-70
2023/11/08 08:56:41;;;;;;;9.40;2.70;;;;;;;;;;103734;1289;546143;-73
2023/11/08 09:00:19;;;;;;;7.70;2.20;;;;;;;;;;103861;1290;545140;-71
2023/11/08 09:03:56;;;;;;;10.40;2.10;;;;;;;;;;103811;1300;545490;-71
2023/11/08 09:07:35;;;;;;;5.80;1.40;;;;;;;;;;104289;1285;544931;-71
2023/11/08 09:11:11;;;;;;;7.30;2.60;;;;;;;;;;103625;1292;545125;-71
2023/11/08 09:14:52;;;;;;;8.10;3.00;;;;;;;;;;103379;1295;544853;-69
2023/11/08 09:18:26;;;;;;;8.60;2.60;;;;;;;;;;103826;1289;545125;-71
2023/11/08 09:22:23;;;;;;;7.10;2.40;;;;;;;;;;104046;1292;547971;-70
2023/11/08 09:25:41;;;;;;;9.80;2.50;;;;;;;;;;104109;1286;544815;-71
2023/11/08 09:29:18;;;;;;;5.50;1.90;;;;;;;;;;103771;1289;544594;-71
2023/11/08 09:32:56;;;;;;;5.90;1.90;;;;;;;;;;103725;1289;544858;-69
2023/11/08 09:36:38;;;;;;;5.80;1.80;;;;;;;;;;104522;1289;545543;-72
2023/11/08 09:40:13;;;;;;;8.50;2.50;;;;;;;;;;103831;1291;544852;-71
2023/11/08 09:43:49;;;;;;;7.60;2.10;;;;;;;;;;103826;1294;544761;-71
2023/11/08 09:47:26;;;;;;;8.70;2.50;;;;;;;;;;103730;1289;545216;-71
2023/11/08 09:51:08;;;;;;;9.20;2.60;;;;;;;;;;103804;1289;545385;-71
2023/11/08 09:54:41;;;;;;;8.20;1.90;;;;;;;;;;104248;1289;544640;-72
2023/11/08 09:58:19;;;;;;;10.10;3.10;;;;;;;;;;104171;1286;545770;-71
2023/11/08 10:01:57;;;;;;;6.30;1.50;;;;;;;;;;103799;1292;544992;-72
2023/11/08 10:05:37;;;;;;;4.10;1.30;;;;;;;;;;103808;1292;545845;-71
2023/11/08 10:09:11;;;;;;;4.90;1.10;;;;;;;;;;103622;1292;545073;-70
2023/11/08 10:13:01;;;;;;;6.50;1.70;;;;;;;;;;103890;1290;545642;-71
2023/11/08 10:16:27;;;;;;;4.80;1.20;;;;;;;;;;103797;1289;544795;-71
2023/11/08 10:20:03;;;;;;;3.80;1.00;;;;;;;;;;103857;1289;545073;-71
2023/11/08 10:23:40;;;;;;;16.30;6.30;;;;;;;;;;104233;1285;545030;-71
2023/11/08 10:27:18;;;;;;;6.70;1.50;;;;;;;;;;103795;1289;544944;-71
2023/11/08 10:30:55;;;;;;;7.80;1.20;;;;;;;;;;104537;1282;545042;-72
2023/11/08 10:34:32;;;;;;;6.50;1.50;;;;;;;;;;103813;1291;544756;-72
2023/11/08 10:38:10;;;;;;;4.60;1.40;;;;;;;;;;103849;1289;545075;-73
2023/11/08 10:41:49;;;;;;;5.60;1.30;;;;;;;;;;103748;1291;545364;-73
2023/11/08 10:45:26;;;;;;;6.80;1.50;;;;;;;;;;103722;1294;545517;-72
2023/11/08 10:49:04;;;;;;;3.50;1.00;;;;;;;;;;103677;1292;544830;-74
2023/11/08 10:52:40;;;;;;;5.10;1.10;;;;;;;;;;103838;1292;544831;-71
2023/11/08 10:56:25;;;;;;;4.90;1.10;;;;;;;;;;103987;1286;547942;-73
2023/11/08 10:59:53;;;;;;;7.20;1.50;;;;;;;;;;103959;1289;544972;-73
2023/11/08 11:03:33;;;;;;;5.10;1.20;;;;;;;;;;103858;1289;544754;-73
2023/11/08 11:07:11;;;;;;;6.00;1.50;;;;;;;;;;103789;1292;544786;-74
2023/11/08 11:10:48;;;;;;;5.40;1.90;;;;;;;;;;104554;1282;544950;-72
2023/11/08 11:14:27;;;;;;;5.20;1.80;;;;;;;;;;103865;1292;544995;-73
2023/11/08 11:18:03;;;;;;;5.30;1.70;;;;;;;;;;103885;1290;546089;-73
2023/11/08 11:21:44;;;;;;;4.90;1.30;;;;;;;;;;103871;1290;544806;-72
2023/11/08 11:25:36;;;;;;;5.30;1.40;;;;;;;;;;103787;1294;545354;-73
2023/11/08 11:28:55;;;;;;;6.50;1.40;;;;;;;;;;103779;1290;545728;-72
2023/11/08 11:32:36;;;;;;;7.30;2.40;;;;;;;;;;104117;1285;544918;-71
2023/11/08 11:36:10;;;;;;;9.10;3.30;;;;;;;;;;103901;1302;545912;-72
2023/11/08 11:39:51;;;;;;;7.20;3.20;;;;;;;;;;103752;1289;544939;-72
2023/11/08 11:43:31;;;;;;;7.50;2.80;;;;;;;;;;103819;1290;545607;-72
2023/11/08 11:47:03;;;;;;;14.50;5.10;;;;;;;;;;103793;1293;544996;-72
2023/11/08 11:50:40;;;;;;;16.20;7.70;;;;;;;;;;103812;1291;545001;-73
2023/11/08 11:54:17;;;;;;;19.30;7.10;;;;;;;;;;103811;1292;546112;-72
2023/11/08 11:57:54;;;;;;;14.80;7.30;;;;;;;;;;103884;1289;545873;-71
2023/11/08 12:01:32;;;;;;;16.30;6.90;;;;;;;;;;103832;1292;544740;-73
2023/11/08 12:05:10;;;;;;;14.80;4.50;;;;;;;;;;104064;1289;544759;-71
2023/11/08 12:08:47;;;;;;;10.90;3.40;;;;;;;;;;103905;1289;545304;-72
2023/11/08 12:12:26;;;;;;;8.40;3.60;;;;;;;;;;103737;1294;544795;-70
2023/11/08 12:16:02;;;;;;;8.20;3.20;;;;;;;;;;103809;1294;545989;-71
2023/11/08 12:19:40;;;;;;;8.80;3.40;;;;;;;;;;103770;1292;545325;-72
2023/11/08 12:23:17;;;;;;;11.60;3.80;;;;;;;;;;104046;1291;545948;-71
2023/11/08 12:26:54;;;;;;;11.90;2.70;;;;;;;;;;103798;1292;546501;-72
2023/11/08 12:30:32;;;;;;;8.30;2.60;;;;;;;;;;103759;1290;544743;-72
2023/11/08 12:34:09;;;;;;;11.10;5.90;;;;;;;;;;104138;1291;545620;-72
2023/11/08 12:37:43;;;;;;;9.10;5.50;;;;;;;;;;103897;1289;544752;-74
2023/11/08 12:41:25;;;;;;;17.50;3.30;;;;;;;;;;103797;1289;544957;-74
2023/11/08 12:45:02;;;;;;;10.10;3.40;;;;;;;;;;103549;1295;544921;-75
2023/11/08 12:48:40;;;;;;;7.30;1.70;;;;;;;;;;103761;1289;544791;-72
2023/11/08 12:52:20;;;;;;;7.00;1.70;;;;;;;;;;103780;1289;545271;-72
2023/11/08 12:55:58;;;;;;;4.40;1.50;;;;;;;;;;103805;1295;544879;-71
2023/11/08 12:59:32;;;;;;;4.40;1.60;;;;;;;;;;103969;1289;545422;-70
2023/11/08 13:03:09;;;;;;;6.30;2.80;;;;;;;;;;103769;1291;545589;-71
2023/11/08 13:06:46;;;;;;;7.00;2.90;;;;;;;;;;103657;1302;544945;-70
2023/11/08 13:10:24;;;;;;;4.90;1.50;;;;;;;;;;104022;1291;544789;-71
2023/11/08 13:14:05;;;;;;;6.80;3.00;;;;;;;;;;103575;1292;545044;-71
2023/11/08 13:17:39;;;;;;;6.40;1.90;;;;;;;;;;103515;1305;544965;-70
2023/11/08 13:21:12;;;;;;;6.00;2.00;;;;;;;;;;103674;1291;545008;-71
2023/11/08 13:24:54;;;;;;;6.00;1.70;;;;;;;;;;103686;1292;544923;-71
2023/11/08 13:28:31;;;;;;;7.30;2.00;;;;;;;;;;103760;1292;545937;-71
2023/11/08 13:32:50;;;;;;;6.90;1.80;;;;;;;;;;103754;1295;544774;-71
2023/11/08 13:35:46;;;;;;;6.50;1.70;;;;;;;;;;103422;1295;544877;-71
2023/11/08 13:39:23;;;;;;;5.80;2.00;;;;;;;;;;103672;1295;545437;-70
2023/11/08 13:43:01;;;;;;;6.10;1.70;;;;;;;;;;103879;1288;545034;-70
2023/11/08 13:46:39;;;;;;;5.20;1.50;;;;;;;;;;103818;1288;545451;-70
2023/11/08 13:50:17;;;;;;;9.00;1.80;;;;;;;;;;103700;1292;545389;-70
2023/11/08 13:53:53;;;;;;;8.80;3.50;;;;;;;;;;103882;1285;546270;-72
2023/11/08 13:57:32;;;;;;;6.70;2.80;;;;;;;;;;103775;1291;545972;-71
2023/11/08 14:01:15;;;;;;;6.20;2.60;;;;;;;;;;103796;1289;545045;-71
2023/11/08 14:04:45;;;;;;;4.70;1.70;;;;;;;;;;103449;1292;545575;-71
2023/11/08 14:08:23;;;;;;;6.00;2.00;;;;;;;;;;103721;1294;545057;-70
2023/11/08 14:12:01;;;;;;;14.10;5.70;;;;;;;;;;103692;1291;545059;-70
2023/11/08 14:15:38;;;;;;;24.10;9.60;;;;;;;;;;103815;1296;545197;-72
2023/11/08 14:19:12;;;;;;;34.30;15.60;;;;;;;;;;103672;1294;544903;-72
2023/11/08 14:22:50;;;;;;;23.40;9.40;;;;;;;;;;104117;1292;544853;-72
2023/11/08 14:26:31;;;;;;;20.70;7.80;;;;;;;;;;103750;1292;545113;-71
2023/11/08 14:30:09;;;;;;;13.60;4.20;;;;;;;;;;103456;1294;544842;-69
2023/11/08 14:33:45;;;;;;;18.80;7.30;;;;;;;;;;103765;1290;545150;-71
2023/11/08 14:37:23;;;;;;;20.60;8.20;;;;;;;;;;103691;1292;544842;-71
2023/11/08 14:41:01;;;;;;;17.80;7.10;;;;;;;;;;103990;1292;546127;-71
2023/11/08 14:44:34;;;;;;;18.70;6.60;;;;;;;;;;104569;1283;545587;-70
2023/11/08 14:48:17;;;;;;;17.00;6.00;;;;;;;;;;103666;1292;547945;-71
2023/11/08 14:51:53;;;;;;;17.00;5.80;;;;;;;;;;103730;1292;545715;-70
2023/11/08 14:55:30;;;;;;;14.60;6.60;;;;;;;;;;103572;1296;544986;-70
2023/11/08 14:59:08;;;;;;;17.60;7.10;;;;;;;;;;103378;1292;545379;-67
2023/11/08 15:02:45;;;;;;;34.40;9.20;;;;;;;;;;104099;1284;546428;-70
2023/11/08 15:06:23;;;;;;;30.40;10.20;;;;;;;;;;103729;1292;545031;-68
2023/11/08 15:10:01;;;;;;;28.40;11.00;;;;;;;;;;103549;1292;545102;-67
2023/11/08 15:13:37;;;;;;;26.00;10.00;;;;;;;;;;103637;1290;544849;-72
2023/11/08 15:17:15;;;;;;;31.20;13.40;;;;;;;;;;103472;1291;545502;-68
2023/11/08 15:20:53;;;;;;;39.40;16.50;;;;;;;;;;104329;1285;545035;-68
2023/11/08 15:24:30;;;;;;;40.00;17.60;;;;;;;;;;103768;1289;546211;-69
2023/11/08 15:28:09;;;;;;;29.70;13.30;;;;;;;;;;103771;1288;545847;-68
2023/11/08 15:31:45;;;;;;;31.30;15.00;;;;;;;;;;103156;1296;545025;-67
2023/11/08 15:35:22;;;;;;;28.80;14.80;;;;;;;;;;103793;1289;544797;-67
2023/11/08 15:39:02;;;;;;;30.90;15.20;;;;;;;;;;103807;1294;545411;-68
2023/11/08 15:42:37;;;;;;;35.90;17.00;;;;;;;;;;103983;1286;545565;-70
2023/11/08 15:46:15;;;;;;;32.80;14.50;;;;;;;;;;103600;1291;544805;-74
2023/11/08 15:49:52;;;;;;;36.40;14.10;;;;;;;;;;103826;1296;545373;-68
2023/11/08 15:53:29;;;;;;;36.10;11.60;;;;;;;;;;103670;1291;544938;-83
2023/11/08 15:57:07;;;;;;;33.80;13.30;;;;;;;;;;103602;1289;544739;-67
2023/11/08 16:00:46;;;;;;;32.90;14.80;;;;;;;;;;103627;1298;544922;-78
2023/11/08 16:04:22;;;;;;;36.80;16.40;;;;;;;;;;103666;1292;545028;-68
2023/11/08 16:08:00;;;;;;;52.80;20.70;;;;;;;;;;103526;1292;545149;-67
2023/11/08 16:11:37;;;;;;;43.70;17.50;;;;;;;;;;103622;1290;545155;-68
2023/11/08 16:15:14;;;;;;;42.30;18.40;;;;;;;;;;103527;1292;545126;-79
2023/11/08 16:18:52;;;;;;;35.50;15.30;;;;;;;;;;103568;1295;545601;-72
2023/11/08 16:22:29;;;;;;;28.80;12.60;;;;;;;;;;103834;1289;545607;-72
2023/11/08 16:26:07;;;;;;;23.10;9.40;;;;;;;;;;103775;1289;546325;-73
2023/11/08 16:29:46;;;;;;;27.10;10.60;;;;;;;;;;104000;1301;546405;-71
2023/11/08 16:33:22;;;;;;;34.50;12.60;;;;;;;;;;103766;1292;545230;-72
2023/11/08 16:37:00;;;;;;;33.30;11.30;;;;;;;;;;103811;1291;544718;-71
2023/11/08 16:40:58;;;;;;;32.70;13.60;;;;;;;;;;103714;1297;547905;-71
2023/11/08 16:44:14;;;;;;;41.20;15.10;;;;;;;;;;103736;1291;544797;-73
2023/11/08 16:47:52;;;;;;;34.90;13.30;;;;;;;;;;103754;1291;546005;-71
2023/11/08 16:51:25;;;;;;;26.00;9.80;;;;;;;;;;104619;1282;544836;-72
2023/11/08 16:55:07;;;;;;;24.10;8.70;;;;;;;;;;103500;1291;545272;-72
2023/11/08 16:58:43;;;;;;;24.30;8.30;;;;;;;;;;103482;1295;545510;-71
2023/11/08 17:02:21;;;;;;;27.60;8.80;;;;;;;;;;103512;1291;544988;-70
2023/11/08 17:05:59;;;;;;;20.40;9.80;;;;;;;;;;103983;1294;545652;-70
2023/11/08 17:09:37;;;;;;;26.10;7.30;;;;;;;;;;103428;1297;545726;-69
2023/11/08 17:13:14;;;;;;;17.90;7.20;;;;;;;;;;103741;1289;544943;-73
2023/11/08 17:16:47;;;;;;;17.40;6.20;;;;;;;;;;103304;1294;545049;-70
2023/11/08 17:20:29;;;;;;;17.00;6.20;;;;;;;;;;103538;1295;545316;-70
2023/11/08 17:24:06;;;;;;;23.40;9.30;;;;;;;;;;103499;1292;545954;-71
2023/11/08 17:27:44;;;;;;;22.10;9.30;;;;;;;;;;103352;1295;545714;-71
2023/11/08 17:31:21;;;;;;;19.60;9.10;;;;;;;;;;103689;1291;545292;-69
2023/11/08 17:35:03;;;;;;;16.10;8.30;;;;;;;;;;103510;1292;546003;-69
2023/11/08 17:38:36;;;;;;;15.50;8.20;;;;;;;;;;103650;1291;544930;-69
2023/11/08 17:42:10;;;;;;;17.30;8.60;;;;;;;;;;103723;1289;545116;-72
2023/11/08 17:45:51;;;;;;;17.60;10.00;;;;;;;;;;103466;1293;544997;-69
2023/11/08 17:49:29;;;;;;;18.00;9.60;;;;;;;;;;103296;1295;544822;-70
2023/11/08 17:53:07;;;;;;;18.30;8.90;;;;;;;;;;103570;1293;545026;-70
2023/11/08 17:56:46;;;;;;;18.50;9.10;;;;;;;;;;103516;1289;545062;-69
2023/11/08 18:00:20;;;;;;;19.10;10.30;;;;;;;;;;103881;1292;544977;-70
2023/11/08 18:04:05;;;;;;;18.80;10.20;;;;;;;;;;104050;1292;547981;-69
2023/11/08 18:07:36;;;;;;;27.40;14.10;;;;;;;;;;103383;1294;544880;-69
2023/11/08 18:11:10;;;;;;;22.30;11.30;;;;;;;;;;103504;1295;545545;-71
2023/11/08 18:14:47;;;;;;;21.10;10.50;;;;;;;;;;103639;1291;544866;-68
2023/11/08 18:18:28;;;;;;;32.70;13.60;;;;;;;;;;103589;1289;544974;-68
2023/11/08 18:22:08;;;;;;;41.90;19.10;;;;;;;;;;103854;1286;545636;-70
2023/11/08 18:25:43;;;;;;;42.00;18.40;;;;;;;;;;103753;1289;545317;-71
2023/11/08 18:29:21;;;;;;;38.40;15.90;;;;;;;;;;103994;1292;545009;-69
2023/11/08 18:33:02;;;;;;;27.50;10.90;;;;;;;;;;103417;1292;544989;-68
2023/11/08 18:36:37;;;;;;;23.70;11.30;;;;;;;;;;103657;1289;544933;-68
2023/11/08 18:40:13;;;;;;;27.40;14.50;;;;;;;;;;103678;1292;544830;-69
2023/11/08 18:43:52;;;;;;;19.90;11.90;;;;;;;;;;103667;1291;544866;-69
2023/11/08 18:47:28;;;;;;;25.60;14.50;;;;;;;;;;104505;1282;544967;-72
2023/11/08 18:51:08;;;;;;;55.70;26.80;;;;;;;;;;103676;1303;544952;-69
2023/11/08 18:54:42;;;;;;;35.00;18.00;;;;;;;;;;104145;1286;545706;-68
2023/11/08 18:58:22;;;;;;;59.90;34.20;;;;;;;;;;103676;1290;544846;-71
2023/11/08 19:01:58;;;;;;;24.30;14.00;;;;;;;;;;103496;1295;544853;-69
2023/11/08 19:05:56;;;;;;;24.30;14.80;;;;;;;;;;104300;1285;545496;-68
2023/11/08 19:09:13;;;;;;;23.90;13.80;;;;;;;;;;103734;1291;545141;-68
2023/11/08 19:12:48;;;;;;;16.10;9.50;;;;;;;;;;104258;1288;545026;-67
2023/11/08 19:16:28;;;;;;;35.40;24.00;;;;;;;;;;104196;1282;544984;-69
2023/11/08 19:20:09;;;;;;;21.30;12.20;;;;;;;;;;103572;1290;545443;-70
2023/11/08 19:23:46;;;;;;;33.60;20.80;;;;;;;;;;103428;1295;548114;-71
2023/11/08 19:27:20;;;;;;;17.10;9.00;;;;;;;;;;103602;1292;545002;-69
2023/11/08 19:31:00;;;;;;;13.60;7.00;;;;;;;;;;103312;1291;545167;-71
2023/11/08 19:34:35;;;;;;;24.70;12.40;;;;;;;;;;103343;1291;545288;-68
2023/11/08 19:38:13;;;;;;;33.10;17.20;;;;;;;;;;103394;1291;544969;-69
2023/11/08 19:41:50;;;;;;;47.10;23.00;;;;;;;;;;103392;1292;546323;-69
2023/11/08 19:45:47;;;;;;;58.80;25.30;;;;;;;;;;103697;1295;545571;-69
2023/11/08 19:49:08;;;;;;;57.70;23.70;;;;;;;;;;103583;1289;545017;-69
2023/11/08 19:52:38;;;;;;;38.80;19.90;;;;;;;;;;103643;1301;544894;-72
2023/11/08 19:56:20;;;;;;;32.40;15.70;;;;;;;;;;103756;1291;544622;-68
2023/11/08 19:59:59;;;;;;;26.40;14.30;;;;;;;;;;103632;1295;546025;-67
2023/11/08 20:03:57;;;;;;;24.10;13.30;;;;;;;;;;103764;1292;546626;-70
2023/11/08 20:07:12;;;;;;;25.30;14.20;;;;;;;;;;103563;1289;545467;-68
2023/11/08 20:10:50;;;;;;;26.20;16.10;;;;;;;;;;103591;1291;545919;-68
2023/11/08 20:14:27;;;;;;;24.00;14.10;;;;;;;;;;103795;1291;545018;-69
2023/11/08 20:18:05;;;;;;;19.40;12.10;;;;;;;;;;103181;1295;544807;-69
2023/11/08 20:22:04;;;;;;;19.10;11.50;;;;;;;;;;103676;1292;548122;-74
2023/11/08 20:25:19;;;;;;;16.10;8.90;;;;;;;;;;103442;1289;545198;-69
2023/11/08 20:28:57;;;;;;;15.50;9.10;;;;;;;;;;103546;1292;545612;-70
2023/11/08 20:32:39;;;;;;;15.60;8.40;;;;;;;;;;103618;1292;545365;-71
2023/11/08 20:36:08;;;;;;;14.50;8.90;;;;;;;;;;103682;1289;545257;-69
2023/11/08 20:39:52;;;;;;;17.20;9.20;;;;;;;;;;103447;1292;544897;-69
2023/11/08 20:43:28;;;;;;;17.60;9.80;;;;;;;;;;103512;1295;544836;-70
2023/11/08 20:47:05;;;;;;;17.00;10.00;;;;;;;;;;103533;1290;544993;-69
2023/11/08 20:50:44;;;;;;;33.80;12.50;;;;;;;;;;103955;1293;545597;-68
2023/11/08 20:54:16;;;;;;;26.40;11.60;;;;;;;;;;103544;1291;544980;-70